sensor_id;sensor_type;location;lat;lon;timestamp;pressure;altitude;pressure_sealevel;temperature;humidity
74079;BME280;62437;51.544;-3.276;2023-04-03T00:00:55;102482.16;;;4.52;61.85
74079;BME280;62437;51.544;-3.276;2023-04-03T00:03:20;102484.47;;;4.27;61.35
74079;BME280;62437;51.544;-3.276;2023-04-03T00:05:46;102485.29;;;3.90;60.91
74079;BME280;62437;51.544;-3.276;2023-04-03T00:08:12;102483.70;;;4.07;64.99
74079;BME280;62437;51.544;-3.276;2023-04-03T00:10:38;102478.44;;;3.31;65.32
74079;BME280;62437;51.544;-3.276;2023-04-03T00:13:04;102481.95;;;2.81;63.61
74079;BME280;62437;51.544;-3.276;2023-04-03T00:15:30;102474.23;;;3.74;64.07
74079;BME280;62437;51.544;-3.276;2023-04-03T00:17:55;102468.41;;;4.79;60.67
74079;BME280;62437;51.544;-3.276;2023-04-03T00:20:21;102468.80;;;4.47;61.68
74079;BME280;62437;51.544;-3.276;2023-04-03T00:22:47;102472.05;;;3.91;61.70
74079;BME280;62437;51.544;-3.276;2023-04-03T00:25:12;102471.00;;;4.94;60.94
74079;BME280;62437;51.544;-3.276;2023-04-03T00:27:39;102464.95;;;4.73;59.58
74079;BME280;62437;51.544;-3.276;2023-04-03T00:30:06;102459.13;;;5.10;59.82
74079;BME280;62437;51.544;-3.276;2023-04-03T00:32:30;102461.59;;;4.75;58.55
74079;BME280;62437;51.544;-3.276;2023-04-03T00:34:56;102458.93;;;5.13;58.62
74079;BME280;62437;51.544;-3.276;2023-04-03T00:37:21;102461.13;;;5.74;57.35
74079;BME280;62437;51.544;-3.276;2023-04-03T00:39:47;102462.69;;;5.58;56.76
74079;BME280;62437;51.544;-3.276;2023-04-03T00:42:13;102458.64;;;5.20;56.08
74079;BME280;62437;51.544;-3.276;2023-04-03T00:47:08;102463.55;;;4.67;59.22
74079;BME280;62437;51.544;-3.276;2023-04-03T00:49:30;102466.32;;;4.46;59.27
74079;BME280;62437;51.544;-3.276;2023-04-03T00:51:57;102462.16;;;4.32;59.10
74079;BME280;62437;51.544;-3.276;2023-04-03T00:54:22;102459.81;;;4.65;58.65
74079;BME280;62437;51.544;-3.276;2023-04-03T00:56:48;102458.66;;;5.03;58.11
74079;BME280;62437;51.544;-3.276;2023-04-03T00:59:16;102459.67;;;3.96;60.02
74079;BME280;62437;51.544;-3.276;2023-04-03T01:01:39;102466.13;;;3.65;61.55
74079;BME280;62437;51.544;-3.276;2023-04-03T01:04:06;102463.66;;;4.29;60.18
74079;BME280;62437;51.544;-3.276;2023-04-03T01:06:34;102463.83;;;4.59;59.40
74079;BME280;62437;51.544;-3.276;2023-04-03T01:08:56;102468.88;;;3.15;60.92
74079;BME280;62437;51.544;-3.276;2023-04-03T01:11:22;102466.99;;;2.97;60.41
74079;BME280;62437;51.544;-3.276;2023-04-03T01:13:48;102459.18;;;4.76;58.56
74079;BME280;62437;51.544;-3.276;2023-04-03T01:16:14;102464.87;;;3.67;60.19
74079;BME280;62437;51.544;-3.276;2023-04-03T01:18:40;102463.15;;;4.86;57.87
74079;BME280;62437;51.544;-3.276;2023-04-03T01:23:42;102461.94;;;5.81;55.03
74079;BME280;62437;51.544;-3.276;2023-04-03T01:25:57;102460.85;;;3.69;59.67
74079;BME280;62437;51.544;-3.276;2023-04-03T01:28:25;102466.04;;;3.05;59.57
74079;BME280;62437;51.544;-3.276;2023-04-03T01:30:53;102461.40;;;3.86;60.02
74079;BME280;62437;51.544;-3.276;2023-04-03T01:33:14;102461.32;;;5.29;54.90
74079;BME280;62437;51.544;-3.276;2023-04-03T01:35:40;102462.56;;;3.25;59.63
74079;BME280;62437;51.544;-3.276;2023-04-03T01:38:06;102461.60;;;4.48;58.28
74079;BME280;62437;51.544;-3.276;2023-04-03T01:40:32;102459.96;;;4.20;58.14
74079;BME280;62437;51.544;-3.276;2023-04-03T01:42:57;102463.05;;;2.35;62.62
74079;BME280;62437;51.544;-3.276;2023-04-03T01:45:23;102460.62;;;3.84;59.18
74079;BME280;62437;51.544;-3.276;2023-04-03T01:47:49;102466.66;;;3.23;62.10
74079;BME280;62437;51.544;-3.276;2023-04-03T01:50:15;102466.46;;;2.91;62.38
74079;BME280;62437;51.544;-3.276;2023-04-03T01:52:40;102469.66;;;3.16;61.29
74079;BME280;62437;51.544;-3.276;2023-04-03T01:55:07;102467.32;;;3.62;60.02
74079;BME280;62437;51.544;-3.276;2023-04-03T01:57:32;102471.38;;;3.38;60.02
74079;BME280;62437;51.544;-3.276;2023-04-03T01:59:58;102465.49;;;3.90;59.31
74079;BME280;62437;51.544;-3.276;2023-04-03T02:02:24;102464.88;;;3.21;59.87
74079;BME280;62437;51.544;-3.276;2023-04-03T02:04:49;102468.14;;;3.24;61.50
74079;BME280;62437;51.544;-3.276;2023-04-03T02:07:15;102468.36;;;2.71;62.73
74079;BME280;62437;51.544;-3.276;2023-04-03T02:09:41;102463.43;;;4.29;58.21
74079;BME280;62437;51.544;-3.276;2023-04-03T02:12:07;102464.98;;;2.05;62.35
74079;BME280;62437;51.544;-3.276;2023-04-03T02:14:32;102463.96;;;2.85;59.73
74079;BME280;62437;51.544;-3.276;2023-04-03T02:17:00;102462.09;;;3.45;60.14
74079;BME280;62437;51.544;-3.276;2023-04-03T02:19:24;102460.98;;;5.17;54.62
74079;BME280;62437;51.544;-3.276;2023-04-03T02:21:50;102457.89;;;3.37;60.69
74079;BME280;62437;51.544;-3.276;2023-04-03T02:24:15;102459.24;;;3.08;58.47
74079;BME280;62437;51.544;-3.276;2023-04-03T02:26:41;102463.38;;;3.04;57.97
74079;BME280;62437;51.544;-3.276;2023-04-03T02:29:07;102456.07;;;4.27;56.85
74079;BME280;62437;51.544;-3.276;2023-04-03T02:31:33;102457.21;;;2.03;61.44
74079;BME280;62437;51.544;-3.276;2023-04-03T02:33:58;102455.08;;;3.71;57.76
74079;BME280;62437;51.544;-3.276;2023-04-03T02:36:24;102453.19;;;3.47;58.49
74079;BME280;62437;51.544;-3.276;2023-04-03T02:38:50;102455.47;;;3.57;59.11
74079;BME280;62437;51.544;-3.276;2023-04-03T02:41:16;102458.87;;;3.08;60.02
74079;BME280;62437;51.544;-3.276;2023-04-03T02:43:41;102458.21;;;2.79;61.19
74079;BME280;62437;51.544;-3.276;2023-04-03T02:46:08;102462.54;;;3.28;60.97
74079;BME280;62437;51.544;-3.276;2023-04-03T02:48:33;102455.10;;;4.06;57.71
74079;BME280;62437;51.544;-3.276;2023-04-03T02:50:59;102465.66;;;2.32;64.06
74079;BME280;62437;51.544;-3.276;2023-04-03T02:53:25;102463.32;;;3.59;58.61
74079;BME280;62437;51.544;-3.276;2023-04-03T02:55:50;102460.13;;;4.77;55.97
74079;BME280;62437;51.544;-3.276;2023-04-03T02:58:16;102463.71;;;3.65;58.89
74079;BME280;62437;51.544;-3.276;2023-04-03T03:00:42;102463.15;;;3.71;59.36
74079;BME280;62437;51.544;-3.276;2023-04-03T03:03:08;102466.20;;;3.32;62.76
74079;BME280;62437;51.544;-3.276;2023-04-03T03:05:34;102465.54;;;1.50;63.85
74079;BME280;62437;51.544;-3.276;2023-04-03T03:08:00;102465.18;;;2.58;62.03
74079;BME280;62437;51.544;-3.276;2023-04-03T03:10:25;102470.34;;;2.55;61.32
74079;BME280;62437;51.544;-3.276;2023-04-03T03:12:51;102473.11;;;3.20;60.19
74079;BME280;62437;51.544;-3.276;2023-04-03T03:15:27;102473.97;;;2.44;61.64
74079;BME280;62437;51.544;-3.276;2023-04-03T03:17:43;102470.81;;;1.86;62.40
74079;BME280;62437;51.544;-3.276;2023-04-03T03:20:09;102471.01;;;1.62;64.17
74079;BME280;62437;51.544;-3.276;2023-04-03T03:22:34;102470.50;;;1.13;65.63
74079;BME280;62437;51.544;-3.276;2023-04-03T03:25:00;102471.38;;;0.82;67.69
74079;BME280;62437;51.544;-3.276;2023-04-03T03:27:26;102468.43;;;2.04;64.35
74079;BME280;62437;51.544;-3.276;2023-04-03T03:29:51;102471.85;;;0.82;65.88
74079;BME280;62437;51.544;-3.276;2023-04-03T03:32:17;102463.32;;;3.03;60.24
74079;BME280;62437;51.544;-3.276;2023-04-03T03:34:43;102461.69;;;3.42;59.40
74079;BME280;62437;51.544;-3.276;2023-04-03T03:37:09;102460.41;;;3.16;59.27
74079;BME280;62437;51.544;-3.276;2023-04-03T03:39:35;102466.61;;;1.69;63.48
74079;BME280;62437;51.544;-3.276;2023-04-03T03:42:00;102464.06;;;3.87;58.97
74079;BME280;62437;51.544;-3.276;2023-04-03T03:44:26;102472.57;;;0.96;65.90
74079;BME280;62437;51.544;-3.276;2023-04-03T03:46:52;102466.40;;;0.65;65.01
74079;BME280;62437;51.544;-3.276;2023-04-03T03:49:18;102460.76;;;3.75;59.19
74079;BME280;62437;51.544;-3.276;2023-04-03T03:51:43;102457.55;;;3.14;60.21
74079;BME280;62437;51.544;-3.276;2023-04-03T03:54:09;102448.77;;;3.21;59.60
74079;BME280;62437;51.544;-3.276;2023-04-03T03:56:35;102447.02;;;2.71;61.21
74079;BME280;62437;51.544;-3.276;2023-04-03T03:59:01;102446.58;;;2.16;62.25
74079;BME280;62437;51.544;-3.276;2023-04-03T04:01:27;102454.48;;;1.17;64.88
74079;BME280;62437;51.544;-3.276;2023-04-03T04:03:52;102446.52;;;4.06;58.34
74079;BME280;62437;51.544;-3.276;2023-04-03T04:06:18;102442.49;;;2.77;59.41
74079;BME280;62437;51.544;-3.276;2023-04-03T04:08:44;102446.17;;;1.14;65.19
74079;BME280;62437;51.544;-3.276;2023-04-03T04:11:10;102446.32;;;1.71;63.52
74079;BME280;62437;51.544;-3.276;2023-04-03T04:13:35;102443.48;;;3.78;58.36
74079;BME280;62437;51.544;-3.276;2023-04-03T04:16:01;102450.69;;;1.18;63.15
74079;BME280;62437;51.544;-3.276;2023-04-03T04:18:27;102450.51;;;1.43;64.54
74079;BME280;62437;51.544;-3.276;2023-04-03T04:20:53;102445.56;;;3.55;58.31
74079;BME280;62437;51.544;-3.276;2023-04-03T04:23:19;102444.92;;;2.39;63.04
74079;BME280;62437;51.544;-3.276;2023-04-03T04:25:45;102446.42;;;1.74;63.87
74079;BME280;62437;51.544;-3.276;2023-04-03T04:28:10;102442.14;;;2.27;62.63
74079;BME280;62437;51.544;-3.276;2023-04-03T04:30:36;102446.29;;;0.51;66.17
74079;BME280;62437;51.544;-3.276;2023-04-03T04:33:02;102434.53;;;2.86;62.26
74079;BME280;62437;51.544;-3.276;2023-04-03T04:35:28;102441.18;;;0.67;66.06
74079;BME280;62437;51.544;-3.276;2023-04-03T04:37:53;102436.13;;;1.90;64.04
74079;BME280;62437;51.544;-3.276;2023-04-03T04:40:19;102436.58;;;2.71;63.11
74079;BME280;62437;51.544;-3.276;2023-04-03T04:42:45;102433.91;;;3.30;62.03
74079;BME280;62437;51.544;-3.276;2023-04-03T04:45:11;102429.09;;;4.13;60.11
74079;BME280;62437;51.544;-3.276;2023-04-03T04:47:36;102434.65;;;1.52;66.22
74079;BME280;62437;51.544;-3.276;2023-04-03T04:50:03;102432.84;;;2.47;65.97
74079;BME280;62437;51.544;-3.276;2023-04-03T04:52:28;102432.34;;;1.79;64.86
74079;BME280;62437;51.544;-3.276;2023-04-03T04:54:54;102427.18;;;2.45;64.74
74079;BME280;62437;51.544;-3.276;2023-04-03T04:57:20;102422.68;;;3.03;63.65
74079;BME280;62437;51.544;-3.276;2023-04-03T04:59:45;102417.30;;;1.88;64.30
74079;BME280;62437;51.544;-3.276;2023-04-03T05:02:11;102414.77;;;1.82;66.22
74079;BME280;62437;51.544;-3.276;2023-04-03T05:04:37;102414.63;;;2.15;64.93
74079;BME280;62437;51.544;-3.276;2023-04-03T05:07:03;102415.46;;;1.58;66.17
74079;BME280;62437;51.544;-3.276;2023-04-03T05:09:29;102408.15;;;3.01;63.98
74079;BME280;62437;51.544;-3.276;2023-04-03T05:11:54;102410.65;;;2.51;65.26
74079;BME280;62437;51.544;-3.276;2023-04-03T05:14:20;102413.80;;;1.84;67.21
74079;BME280;62437;51.544;-3.276;2023-04-03T05:16:46;102415.93;;;2.16;65.23
74079;BME280;62437;51.544;-3.276;2023-04-03T05:19:21;102413.42;;;2.76;64.37
74079;BME280;62437;51.544;-3.276;2023-04-03T05:21:37;102411.95;;;4.10;62.08
74079;BME280;62437;51.544;-3.276;2023-04-03T05:24:04;102408.00;;;4.13;62.05
74079;BME280;62437;51.544;-3.276;2023-04-03T05:26:29;102411.85;;;1.89;64.52
74079;BME280;62437;51.544;-3.276;2023-04-03T05:28:55;102411.09;;;3.07;61.77
74079;BME280;62437;51.544;-3.276;2023-04-03T05:31:20;102412.89;;;1.48;65.63
74079;BME280;62437;51.544;-3.276;2023-04-03T05:33:51;102414.29;;;3.43;63.07
74079;BME280;62437;51.544;-3.276;2023-04-03T05:36:12;102415.03;;;2.88;62.96
74079;BME280;62437;51.544;-3.276;2023-04-03T05:38:38;102411.39;;;2.55;62.73
74079;BME280;62437;51.544;-3.276;2023-04-03T05:41:04;102415.52;;;2.45;64.98
74079;BME280;62437;51.544;-3.276;2023-04-03T05:43:29;102414.23;;;2.99;62.88
74079;BME280;62437;51.544;-3.276;2023-04-03T05:46:08;102413.93;;;2.55;63.14
74079;BME280;62437;51.544;-3.276;2023-04-03T05:48:21;102416.05;;;2.80;62.07
74079;BME280;62437;51.544;-3.276;2023-04-03T05:50:47;102413.15;;;2.70;62.01
74079;BME280;62437;51.544;-3.276;2023-04-03T05:53:17;102418.70;;;2.57;62.53
74079;BME280;62437;51.544;-3.276;2023-04-03T05:55:38;102423.71;;;1.65;65.87
74079;BME280;62437;51.544;-3.276;2023-04-03T05:58:04;102421.39;;;2.18;62.52
74079;BME280;62437;51.544;-3.276;2023-04-03T06:00:30;102421.04;;;3.38;61.03
74079;BME280;62437;51.544;-3.276;2023-04-03T06:02:56;102420.46;;;2.85;62.67
74079;BME280;62437;51.544;-3.276;2023-04-03T06:05:21;102429.16;;;1.68;62.89
74079;BME280;62437;51.544;-3.276;2023-04-03T06:07:47;102427.91;;;2.09;64.78
74079;BME280;62437;51.544;-3.276;2023-04-03T06:10:13;102421.39;;;2.27;63.88
74079;BME280;62437;51.544;-3.276;2023-04-03T06:12:39;102418.36;;;2.84;64.90
74079;BME280;62437;51.544;-3.276;2023-04-03T06:15:05;102418.63;;;1.92;64.22
74079;BME280;62437;51.544;-3.276;2023-04-03T06:17:30;102420.17;;;1.03;63.58
74079;BME280;62437;51.544;-3.276;2023-04-03T06:19:56;102423.48;;;0.54;66.31
74079;BME280;62437;51.544;-3.276;2023-04-03T06:22:22;102427.61;;;1.13;64.86
74079;BME280;62437;51.544;-3.276;2023-04-03T06:24:48;102424.79;;;1.73;64.48
74079;BME280;62437;51.544;-3.276;2023-04-03T06:27:13;102424.58;;;1.87;64.76
74079;BME280;62437;51.544;-3.276;2023-04-03T06:29:39;102423.90;;;1.31;63.61
74079;BME280;62437;51.544;-3.276;2023-04-03T06:32:05;102418.71;;;1.86;62.02
74079;BME280;62437;51.544;-3.276;2023-04-03T06:34:31;102416.21;;;2.55;63.52
74079;BME280;62437;51.544;-3.276;2023-04-03T06:37:02;102418.97;;;1.16;64.37
74079;BME280;62437;51.544;-3.276;2023-04-03T06:39:23;102417.30;;;0.93;65.01
74079;BME280;62437;51.544;-3.276;2023-04-03T06:41:49;102416.21;;;1.92;64.72
74079;BME280;62437;51.544;-3.276;2023-04-03T06:44:14;102417.60;;;1.28;64.16
74079;BME280;62437;51.544;-3.276;2023-04-03T06:46:40;102418.66;;;1.01;67.41
74079;BME280;62437;51.544;-3.276;2023-04-03T06:49:06;102418.38;;;0.98;66.07
74079;BME280;62437;51.544;-3.276;2023-04-03T06:51:31;102425.73;;;1.27;64.71
74079;BME280;62437;51.544;-3.276;2023-04-03T06:53:58;102423.13;;;1.65;64.61
74079;BME280;62437;51.544;-3.276;2023-04-03T06:56:23;102423.55;;;0.94;65.67
74079;BME280;62437;51.544;-3.276;2023-04-03T06:58:49;102422.03;;;1.26;69.55
74079;BME280;62437;51.544;-3.276;2023-04-03T07:01:20;102425.82;;;1.66;68.02
74079;BME280;62437;51.544;-3.276;2023-04-03T07:03:41;102423.57;;;0.53;68.87
74079;BME280;62437;51.544;-3.276;2023-04-03T07:06:09;102425.71;;;1.94;65.59
74079;BME280;62437;51.544;-3.276;2023-04-03T07:08:32;102425.44;;;1.09;66.50
74079;BME280;62437;51.544;-3.276;2023-04-03T07:10:58;102426.46;;;1.09;69.65
74079;BME280;62437;51.544;-3.276;2023-04-03T07:13:28;102425.15;;;0.98;68.41
74079;BME280;62437;51.544;-3.276;2023-04-03T07:15:49;102427.60;;;2.20;67.11
74079;BME280;62437;51.544;-3.276;2023-04-03T07:18:15;102428.04;;;1.26;71.88
74079;BME280;62437;51.544;-3.276;2023-04-03T07:20:41;102433.29;;;0.41;69.44
74079;BME280;62437;51.544;-3.276;2023-04-03T07:23:07;102431.43;;;1.08;66.24
74079;BME280;62437;51.544;-3.276;2023-04-03T07:25:33;102432.43;;;0.62;68.96
74079;BME280;62437;51.544;-3.276;2023-04-03T07:27:58;102429.66;;;2.48;67.50
74079;BME280;62437;51.544;-3.276;2023-04-03T07:30:24;102436.25;;;1.22;65.55
74079;BME280;62437;51.544;-3.276;2023-04-03T07:32:50;102439.73;;;1.46;65.21
74079;BME280;62437;51.544;-3.276;2023-04-03T07:35:16;102441.02;;;1.01;65.16
74079;BME280;62437;51.544;-3.276;2023-04-03T07:37:41;102443.93;;;1.63;64.98
74079;BME280;62437;51.544;-3.276;2023-04-03T07:40:08;102444.29;;;0.96;65.31
74079;BME280;62437;51.544;-3.276;2023-04-03T07:42:33;102452.44;;;1.17;66.90
74079;BME280;62437;51.544;-3.276;2023-04-03T07:44:59;102449.57;;;2.29;70.67
74079;BME280;62437;51.544;-3.276;2023-04-03T07:47:25;102450.78;;;2.64;71.07
74079;BME280;62437;51.544;-3.276;2023-04-03T07:49:50;102455.09;;;2.22;69.77
74079;BME280;62437;51.544;-3.276;2023-04-03T07:52:16;102456.36;;;0.64;66.66
74079;BME280;62437;51.544;-3.276;2023-04-03T07:54:42;102453.19;;;2.33;69.07
74079;BME280;62437;51.544;-3.276;2023-04-03T07:57:08;102449.31;;;3.02;66.42
74079;BME280;62437;51.544;-3.276;2023-04-03T07:59:34;102456.41;;;2.47;69.43
74079;BME280;62437;51.544;-3.276;2023-04-03T08:02:09;102456.30;;;3.27;68.60
74079;BME280;62437;51.544;-3.276;2023-04-03T08:04:25;102462.50;;;2.83;70.40
74079;BME280;62437;51.544;-3.276;2023-04-03T08:06:51;102460.79;;;2.23;64.86
74079;BME280;62437;51.544;-3.276;2023-04-03T08:09:17;102456.90;;;2.86;67.51
74079;BME280;62437;51.544;-3.276;2023-04-03T08:11:43;102458.46;;;3.10;69.45
74079;BME280;62437;51.544;-3.276;2023-04-03T08:14:08;102458.90;;;3.88;69.16
74079;BME280;62437;51.544;-3.276;2023-04-03T08:16:34;102464.47;;;2.74;66.93
74079;BME280;62437;51.544;-3.276;2023-04-03T08:19:00;102459.04;;;3.21;68.23
74079;BME280;62437;51.544;-3.276;2023-04-03T08:21:26;102467.11;;;2.01;63.35
74079;BME280;62437;51.544;-3.276;2023-04-03T08:23:51;102468.74;;;1.23;66.77
74079;BME280;62437;51.544;-3.276;2023-04-03T08:26:19;102475.37;;;2.33;67.21
74079;BME280;62437;51.544;-3.276;2023-04-03T08:28:43;102472.85;;;1.94;66.63
74079;BME280;62437;51.544;-3.276;2023-04-03T08:31:12;102471.14;;;2.48;66.16
74079;BME280;62437;51.544;-3.276;2023-04-03T08:33:34;102464.39;;;3.45;70.64
74079;BME280;62437;51.544;-3.276;2023-04-03T08:36:00;102457.14;;;2.45;64.18
74079;BME280;62437;51.544;-3.276;2023-04-03T08:38:26;102457.43;;;3.02;69.54
74079;BME280;62437;51.544;-3.276;2023-04-03T08:41:01;102462.98;;;1.79;64.25
74079;BME280;62437;51.544;-3.276;2023-04-03T08:43:29;102459.03;;;2.64;67.87
74079;BME280;62437;51.544;-3.276;2023-04-03T08:45:45;102464.61;;;1.77;68.27
74079;BME280;62437;51.544;-3.276;2023-04-03T08:48:13;102465.20;;;2.07;65.85
74079;BME280;62437;51.544;-3.276;2023-04-03T08:50:38;102464.11;;;2.23;66.97
74079;BME280;62437;51.544;-3.276;2023-04-03T08:53:02;102458.07;;;3.31;64.97
74079;BME280;62437;51.544;-3.276;2023-04-03T08:55:29;102458.27;;;3.06;63.09
74079;BME280;62437;51.544;-3.276;2023-04-03T08:57:59;102451.65;;;4.17;67.29
74079;BME280;62437;51.544;-3.276;2023-04-03T09:00:20;102453.05;;;2.27;64.89
74079;BME280;62437;51.544;-3.276;2023-04-03T09:02:46;102451.23;;;3.38;63.23
74079;BME280;62437;51.544;-3.276;2023-04-03T09:05:14;102446.39;;;4.34;67.70
74079;BME280;62437;51.544;-3.276;2023-04-03T09:07:43;102447.65;;;4.44;68.53
74079;BME280;62437;51.544;-3.276;2023-04-03T09:10:01;102447.06;;;3.36;60.53
74079;BME280;62437;51.544;-3.276;2023-04-03T09:12:32;102441.85;;;3.60;61.44
74079;BME280;62437;51.544;-3.276;2023-04-03T09:14:59;102435.48;;;2.72;64.18
74079;BME280;62437;51.544;-3.276;2023-04-03T09:17:27;102436.90;;;2.60;62.88
74079;BME280;62437;51.544;-3.276;2023-04-03T09:19:51;102427.96;;;2.22;67.13
74079;BME280;62437;51.544;-3.276;2023-04-03T09:22:16;102436.38;;;1.70;64.33
74079;BME280;62437;51.544;-3.276;2023-04-03T09:24:37;102429.98;;;2.24;67.62
74079;BME280;62437;51.544;-3.276;2023-04-03T09:27:04;102424.96;;;3.62;71.02
74079;BME280;62437;51.544;-3.276;2023-04-03T09:29:27;102426.10;;;3.63;62.99
74079;BME280;62437;51.544;-3.276;2023-04-03T09:31:56;102425.68;;;3.43;64.91
74079;BME280;62437;51.544;-3.276;2023-04-03T09:34:23;102426.56;;;2.89;60.34
74079;BME280;62437;51.544;-3.276;2023-04-03T09:36:46;102426.79;;;4.09;67.61
74079;BME280;62437;51.544;-3.276;2023-04-03T09:39:13;102433.53;;;4.42;67.29
74079;BME280;62437;51.544;-3.276;2023-04-03T09:41:36;102424.85;;;2.64;61.36
74079;BME280;62437;51.544;-3.276;2023-04-03T09:44:02;102432.30;;;3.84;66.26
74079;BME280;62437;51.544;-3.276;2023-04-03T09:46:30;102436.20;;;4.44;66.11
74079;BME280;62437;51.544;-3.276;2023-04-03T09:48:59;102432.99;;;4.33;68.55
74079;BME280;62437;51.544;-3.276;2023-04-03T09:51:25;102437.58;;;3.29;59.73
74079;BME280;62437;51.544;-3.276;2023-04-03T09:53:45;102432.37;;;5.21;68.79
74079;BME280;62437;51.544;-3.276;2023-04-03T09:56:19;102432.95;;;4.73;62.40
74079;BME280;62437;51.544;-3.276;2023-04-03T09:58:38;102435.69;;;4.78;60.56
74079;BME280;62437;51.544;-3.276;2023-04-03T10:01:03;102434.75;;;3.29;63.00
74079;BME280;62437;51.544;-3.276;2023-04-03T10:03:31;102428.94;;;5.03;65.66
74079;BME280;62437;51.544;-3.276;2023-04-03T10:05:54;102425.36;;;3.79;58.38
74079;BME280;62437;51.544;-3.276;2023-04-03T10:08:23;102425.69;;;3.87;59.23
74079;BME280;62437;51.544;-3.276;2023-04-03T10:10:46;102418.95;;;4.74;59.88
74079;BME280;62437;51.544;-3.276;2023-04-03T10:13:12;102422.30;;;4.21;64.03
74079;BME280;62437;51.544;-3.276;2023-04-03T10:15:42;102420.80;;;4.56;66.35
74079;BME280;62437;51.544;-3.276;2023-04-03T10:18:07;102415.07;;;4.08;58.59
74079;BME280;62437;51.544;-3.276;2023-04-03T10:20:34;102414.66;;;5.15;62.68
74079;BME280;62437;51.544;-3.276;2023-04-03T10:23:02;102411.82;;;5.16;62.43
74079;BME280;62437;51.544;-3.276;2023-04-03T10:25:23;102417.11;;;5.42;63.57
74079;BME280;62437;51.544;-3.276;2023-04-03T10:27:53;102415.54;;;5.11;57.10
74079;BME280;62437;51.544;-3.276;2023-04-03T10:30:23;102412.13;;;4.58;59.96
74079;BME280;62437;51.544;-3.276;2023-04-03T10:32:45;102411.51;;;5.14;60.18
74079;BME280;62437;51.544;-3.276;2023-04-03T10:35:12;102410.79;;;5.81;63.83
74079;BME280;62437;51.544;-3.276;2023-04-03T10:37:34;102411.90;;;4.79;59.98
74079;BME280;62437;51.544;-3.276;2023-04-03T10:39:57;102404.27;;;5.12;57.17
74079;BME280;62437;51.544;-3.276;2023-04-03T10:42:26;102401.90;;;6.59;67.16
74079;BME280;62437;51.544;-3.276;2023-04-03T10:44:58;102406.76;;;6.18;66.00
74079;BME280;62437;51.544;-3.276;2023-04-03T10:47:17;102404.49;;;6.78;68.29
74079;BME280;62437;51.544;-3.276;2023-04-03T10:49:48;102402.83;;;6.58;68.82
74079;BME280;62437;51.544;-3.276;2023-04-03T10:52:09;102407.73;;;5.03;57.64
74079;BME280;62437;51.544;-3.276;2023-04-03T10:54:34;102405.59;;;6.31;65.99
74079;BME280;62437;51.544;-3.276;2023-04-03T10:56:56;102407.57;;;5.25;57.47
74079;BME280;62437;51.544;-3.276;2023-04-03T10:59:25;102405.53;;;3.89;57.93
74079;BME280;62437;51.544;-3.276;2023-04-03T11:01:48;102410.88;;;5.19;68.09
74079;BME280;62437;51.544;-3.276;2023-04-03T11:04:12;102410.29;;;5.86;67.29
74079;BME280;62437;51.544;-3.276;2023-04-03T11:06:41;102407.74;;;6.36;66.26
74079;BME280;62437;51.544;-3.276;2023-04-03T11:09:05;102404.87;;;5.27;64.01
74079;BME280;62437;51.544;-3.276;2023-04-03T11:11:31;102394.99;;;5.53;66.82
74079;BME280;62437;51.544;-3.276;2023-04-03T11:14:00;102385.26;;;5.49;57.55
74079;BME280;62437;51.544;-3.276;2023-04-03T11:16:24;102387.66;;;5.31;59.23
74079;BME280;62437;51.544;-3.276;2023-04-03T11:18:52;102390.60;;;4.73;57.42
74079;BME280;62437;51.544;-3.276;2023-04-03T11:21:16;102381.88;;;6.67;60.87
74079;BME280;62437;51.544;-3.276;2023-04-03T11:23:39;102376.39;;;6.46;56.91
74079;BME280;62437;51.544;-3.276;2023-04-03T11:26:10;102374.39;;;5.97;58.43
74079;BME280;62437;51.544;-3.276;2023-04-03T11:28:28;102379.34;;;6.71;59.66
74079;BME280;62437;51.544;-3.276;2023-04-03T11:31:01;102374.98;;;7.49;64.83
74079;BME280;62437;51.544;-3.276;2023-04-03T11:33:30;102372.34;;;6.05;53.24
74079;BME280;62437;51.544;-3.276;2023-04-03T11:35:47;102369.79;;;7.02;58.51
74079;BME280;62437;51.544;-3.276;2023-04-03T11:38:18;102366.16;;;7.36;62.05
74079;BME280;62437;51.544;-3.276;2023-04-03T11:40:38;102367.22;;;7.92;64.92
74079;BME280;62437;51.544;-3.276;2023-04-03T11:43:06;102359.58;;;7.28;59.40
74079;BME280;62437;51.544;-3.276;2023-04-03T11:45:35;102356.89;;;7.89;62.86
74079;BME280;62437;51.544;-3.276;2023-04-03T11:47:56;102357.73;;;8.10;65.31
74079;BME280;62437;51.544;-3.276;2023-04-03T11:50:39;102352.21;;;6.15;54.32
74079;BME280;62437;51.544;-3.276;2023-04-03T11:52:55;102354.15;;;7.49;57.95
74079;BME280;62437;51.544;-3.276;2023-04-03T11:57:46;102351.17;;;5.98;55.55
74079;BME280;62437;51.544;-3.276;2023-04-03T12:02:37;102342.51;;;7.13;56.24
74079;BME280;62437;51.544;-3.276;2023-04-03T12:07:19;102341.76;;;6.62;52.46
74079;BME280;62437;51.544;-3.276;2023-04-03T12:09:56;102336.02;;;6.43;61.07
74079;BME280;62437;51.544;-3.276;2023-04-03T12:12:22;102336.86;;;6.97;56.69
74079;BME280;62437;51.544;-3.276;2023-04-03T12:14:36;102327.76;;;8.22;64.30
74079;BME280;62437;51.544;-3.276;2023-04-03T12:17:02;102332.74;;;8.52;63.43
74079;BME280;62437;51.544;-3.276;2023-04-03T12:19:32;102337.99;;;8.49;64.77
74079;BME280;62437;51.544;-3.276;2023-04-03T12:22:06;102330.95;;;7.20;52.20
74079;BME280;62437;51.544;-3.276;2023-04-03T12:24:25;102329.83;;;6.90;54.91
74079;BME280;62437;51.544;-3.276;2023-04-03T12:26:48;102328.43;;;6.31;55.16
74079;BME280;62437;51.544;-3.276;2023-04-03T12:29:17;102324.26;;;7.84;58.45
74079;BME280;62437;51.544;-3.276;2023-04-03T12:31:42;102331.21;;;6.94;53.02
74079;BME280;62437;51.544;-3.276;2023-04-03T12:34:17;102324.75;;;6.03;53.03
74079;BME280;62437;51.544;-3.276;2023-04-03T12:36:36;102317.64;;;6.17;52.39
74079;BME280;62437;51.544;-3.276;2023-04-03T12:39:03;102312.44;;;7.76;57.35
74079;BME280;62437;51.544;-3.276;2023-04-03T12:41:24;102314.49;;;8.76;60.11
74079;BME280;62437;51.544;-3.276;2023-04-03T12:43:55;102310.95;;;7.87;60.29
74079;BME280;62437;51.544;-3.276;2023-04-03T12:46:15;102299.00;;;6.46;50.52
74079;BME280;62437;51.544;-3.276;2023-04-03T12:48:47;102291.07;;;6.85;54.34
74079;BME280;62437;51.544;-3.276;2023-04-03T12:51:02;102282.32;;;6.66;52.47
74079;BME280;62437;51.544;-3.276;2023-04-03T12:53:29;102286.95;;;7.24;54.34